createdAt,value
2023-04-06T00:00:12.772Z,67.16
2023-04-06T00:02:43.753Z,67.22
2023-04-06T00:05:12.370Z,67.19
2023-04-06T00:07:40.985Z,67.31
2023-04-06T00:10:11.157Z,67.26
2023-04-06T00:12:45.769Z,67.34
2023-04-06T00:15:14.057Z,67.40
2023-04-06T00:17:43.613Z,67.42
2023-04-06T00:20:12.811Z,67.34
2023-04-06T00:22:42.730Z,67.42
2023-04-06T00:25:12.747Z,67.32
2023-04-06T00:27:41.670Z,67.38
2023-04-06T00:30:12.180Z,67.33
2023-04-06T00:32:40.614Z,67.32
2023-04-06T00:35:10.378Z,67.27
2023-04-06T00:37:39.172Z,67.20
2023-04-06T00:40:08.649Z,67.16
2023-04-06T00:42:37.378Z,67.18
2023-04-06T00:45:07.048Z,66.97
2023-04-06T00:47:35.488Z,66.88
2023-04-06T00:50:07.724Z,66.77
2023-04-06T00:52:36.843Z,66.74
2023-04-06T00:55:06.572Z,66.75
2023-04-06T00:57:37.537Z,66.57
2023-04-06T01:00:07.783Z,66.61
2023-04-06T01:02:38.241Z,66.50
2023-04-06T01:05:08.257Z,66.26
2023-04-06T01:07:45.317Z,66.27
2023-04-06T01:10:27.233Z,66.14
2023-04-06T01:13:03.144Z,66.10
2023-04-06T01:15:47.656Z,66.06
2023-04-06T01:18:19.274Z,66.06
2023-04-06T01:20:55.695Z,65.88
2023-04-06T01:23:26.572Z,65.90
2023-04-06T01:25:55.462Z,65.80
2023-04-06T01:28:25.398Z,65.72
2023-04-06T01:30:58.769Z,65.69
2023-04-06T01:33:44.295Z,65.71
2023-04-06T01:36:16.739Z,65.79
2023-04-06T01:38:46.594Z,65.82
2023-04-06T01:41:16.122Z,65.77
2023-04-06T01:43:50.730Z,65.89
2023-04-06T01:46:18.910Z,66.02
2023-04-06T01:48:48.925Z,66.02
2023-04-06T01:51:21.582Z,66.17
2023-04-06T01:53:56.393Z,66.22
2023-04-06T01:56:28.430Z,66.22
2023-04-06T01:59:03.720Z,66.28
2023-04-06T02:01:37.441Z,66.38
2023-04-06T02:04:07.071Z,66.42
2023-04-06T02:06:36.036Z,66.63
2023-04-06T02:09:04.579Z,66.92
2023-04-06T02:11:33.140Z,67.02
2023-04-06T02:14:07.128Z,67.12
2023-04-06T02:16:48.683Z,67.13
2023-04-06T02:19:17.251Z,67.36
2023-04-06T02:21:45.385Z,67.50
2023-04-06T02:24:13.846Z,67.56
2023-04-06T02:26:42.429Z,67.67
2023-04-06T02:29:12.123Z,67.76
2023-04-06T02:31:41.598Z,67.89
2023-04-06T02:34:13.088Z,67.81
2023-04-06T02:36:47.214Z,67.92
2023-04-06T02:39:16.784Z,68.11
2023-04-06T02:41:45.747Z,68.27
2023-04-06T02:44:14.341Z,68.31
2023-04-06T02:46:44.544Z,68.52
2023-04-06T02:49:12.726Z,68.48
2023-04-06T02:51:42.054Z,68.65
2023-04-06T02:54:35.106Z,68.69
2023-04-06T02:57:03.692Z,68.68
2023-04-06T02:59:38.737Z,68.79
2023-04-06T03:02:27.388Z,68.77
2023-04-06T03:04:57.705Z,68.77
2023-04-06T03:07:31.386Z,68.67
2023-04-06T03:10:00.110Z,68.69
2023-04-06T03:12:28.347Z,68.79
2023-04-06T03:15:17.267Z,68.75
2023-04-06T03:17:50.647Z,68.66
2023-04-06T03:20:40.728Z,68.70
2023-04-06T03:23:16.495Z,68.77
2023-04-06T03:25:45.555Z,68.82
2023-04-06T03:28:19.991Z,68.70
2023-04-06T03:30:55.842Z,68.69
2023-04-06T03:33:42.392Z,68.68
2023-04-06T03:36:13.764Z,68.74
2023-04-06T03:38:48.150Z,68.82
2023-04-06T03:41:16.943Z,68.73
2023-04-06T03:43:51.019Z,68.66
2023-04-06T03:46:19.381Z,68.74
2023-04-06T03:48:50.403Z,68.69
2023-04-06T03:51:19.371Z,68.69
2023-04-06T03:53:49.594Z,68.75
2023-04-06T03:56:23.706Z,68.73
2023-04-06T03:58:56.881Z,68.78
2023-04-06T04:01:26.732Z,68.82
2023-04-06T04:03:55.273Z,68.83
2023-04-06T04:06:23.905Z,68.83
2023-04-06T04:08:52.292Z,68.88
2023-04-06T04:11:21.628Z,68.91
2023-04-06T04:13:53.141Z,69.05
2023-04-06T04:16:23.342Z,69.07
2023-04-06T04:18:52.205Z,69.02
2023-04-06T04:21:20.749Z,69.07
2023-04-06T04:23:51.455Z,69.03
2023-04-06T04:26:19.736Z,69.07
2023-04-06T04:28:48.753Z,69.12
2023-04-06T04:31:23.027Z,69.03
2023-04-06T04:33:54.475Z,69.12
2023-04-06T04:36:27.561Z,69.13
2023-04-06T04:38:56.310Z,69.21
2023-04-06T04:41:24.870Z,69.23
2023-04-06T04:51:36.769Z,69.23
2023-04-06T04:54:10.236Z,69.20
2023-04-06T04:56:38.777Z,69.24
2023-04-06T04:59:35.440Z,69.34
2023-04-06T05:02:09.398Z,69.36
2023-04-06T05:04:42.708Z,69.32
2023-04-06T05:07:11.127Z,69.45
2023-04-06T05:09:43.294Z,69.35
2023-04-06T05:12:11.311Z,69.41
2023-04-06T05:14:47.763Z,69.28
2023-04-06T05:17:18.213Z,69.34
2023-04-06T05:19:48.072Z,69.40
2023-04-06T05:22:18.088Z,69.42
2023-04-06T05:24:47.306Z,69.41
2023-04-06T05:27:14.457Z,69.48
2023-04-06T05:29:41.652Z,69.50
2023-04-06T05:32:09.407Z,69.49
2023-04-06T05:34:37.469Z,69.48
2023-04-06T05:37:05.441Z,69.43
2023-04-06T05:39:32.699Z,69.43
2023-04-06T05:42:20.368Z,69.39
2023-04-06T05:44:54.297Z,69.54
2023-04-06T05:47:21.117Z,69.42
2023-04-06T05:49:53.700Z,69.46
2023-04-06T05:52:33.768Z,69.53
2023-04-06T05:55:01.149Z,69.59
2023-04-06T05:57:30.825Z,69.58
2023-04-06T05:59:57.644Z,69.53
2023-04-06T06:02:27.906Z,69.60
2023-04-06T06:04:57.452Z,69.59
2023-04-06T06:07:25.262Z,69.64
2023-04-06T06:09:58.730Z,69.64
2023-04-06T06:12:31.104Z,69.61
2023-04-06T06:14:59.645Z,69.73
2023-04-06T06:17:26.980Z,69.78
2023-04-06T06:19:54.307Z,69.79
2023-04-06T06:22:21.263Z,69.69
2023-04-06T06:24:48.558Z,69.75
2023-04-06T06:27:18.917Z,69.74
2023-04-06T06:29:46.521Z,69.65
2023-04-06T06:32:15.197Z,69.57
2023-04-06T06:34:42.444Z,69.64
2023-04-06T06:37:10.149Z,69.49
2023-04-06T06:39:37.657Z,69.50
2023-04-06T06:42:04.651Z,69.34
2023-04-06T06:44:54.336Z,69.40
2023-04-06T06:47:22.406Z,69.34
2023-04-06T06:49:50.080Z,69.31
2023-04-06T06:52:20.614Z,69.32
2023-04-06T06:54:47.496Z,69.29
2023-04-06T06:57:14.691Z,69.19
2023-04-06T06:59:42.609Z,69.22
2023-04-06T07:02:09.789Z,69.31
2023-04-06T07:04:36.803Z,69.26
2023-04-06T07:07:05.017Z,69.31
2023-04-06T07:09:32.726Z,69.22
2023-04-06T07:12:01.465Z,69.11
2023-04-06T07:14:29.956Z,68.87
2023-04-06T07:16:57.501Z,68.80
2023-04-06T07:19:25.486Z,68.76
2023-04-06T07:21:53.664Z,68.59
2023-04-06T07:24:21.283Z,68.52
2023-04-06T07:26:48.376Z,68.33
2023-04-06T07:29:15.871Z,68.36
2023-04-06T07:31:43.304Z,68.35
2023-04-06T07:34:11.315Z,68.02
2023-04-06T07:36:44.399Z,67.89
2023-04-06T07:39:12.645Z,67.84
2023-04-06T07:41:40.551Z,67.68
2023-04-06T07:44:08.050Z,67.68
2023-04-06T07:46:36.459Z,67.47
2023-04-06T07:49:05.018Z,67.29
2023-04-06T07:51:36.808Z,67.04
2023-04-06T07:54:04.290Z,66.92
2023-04-06T07:56:31.637Z,66.63
2023-04-06T07:58:58.582Z,66.34
2023-04-06T08:01:27.803Z,66.18
2023-04-06T08:03:56.991Z,66.19
2023-04-06T08:06:24.469Z,66.14
2023-04-06T08:08:52.720Z,65.83
2023-04-06T08:11:20.497Z,65.69
2023-04-06T08:13:47.738Z,65.50
2023-04-06T08:16:15.814Z,65.12
2023-04-06T08:18:44.342Z,64.93
2023-04-06T08:21:11.419Z,64.60
2023-04-06T08:23:38.250Z,64.40
2023-04-06T08:26:05.100Z,64.35
2023-04-06T08:28:36.256Z,64.18
2023-04-06T08:31:06.352Z,64.16
2023-04-06T08:33:36.902Z,64.15
2023-04-06T08:36:12.976Z,64.09
2023-04-06T08:38:41.648Z,64.16
2023-04-06T08:41:11.960Z,63.89
2023-04-06T08:43:47.132Z,63.88
2023-04-06T08:46:13.974Z,63.55
2023-04-06T08:48:42.202Z,63.22
2023-04-06T08:51:12.436Z,63.21
2023-04-06T08:53:39.168Z,63.31
2023-04-06T08:56:05.894Z,63.34
2023-04-06T08:58:38.590Z,63.31
2023-04-06T09:01:09.922Z,63.25
2023-04-06T09:03:40.138Z,63.15
2023-04-06T09:06:07.296Z,63.19
2023-04-06T09:08:35.170Z,63.15
2023-04-06T09:11:05.487Z,63.16
2023-04-06T09:13:50.176Z,63.13
2023-04-06T09:16:19.409Z,63.12
2023-04-06T09:18:47.188Z,63.09
2023-04-06T09:21:24.688Z,63.21
2023-04-06T09:24:01.080Z,63.31
2023-04-06T09:26:33.976Z,63.55
2023-04-06T09:29:01.747Z,63.50
2023-04-06T09:31:30.323Z,63.43
2023-04-06T09:33:57.347Z,63.27
2023-04-06T09:36:34.124Z,62.87
2023-04-06T09:39:04.933Z,62.67
2023-04-06T09:41:33.404Z,62.65
2023-04-06T09:44:07.419Z,62.72
2023-04-06T09:46:46.957Z,63.07
2023-04-06T09:49:22.810Z,63.23
2023-04-06T09:51:55.046Z,63.34
2023-04-06T09:54:23.638Z,63.44
2023-04-06T09:57:04.500Z,63.49
2023-04-06T09:59:52.456Z,63.22
2023-04-06T10:02:25.415Z,63.09
2023-04-06T10:05:01.944Z,63.10
2023-04-06T10:07:29.167Z,63.03
2023-04-06T10:09:55.900Z,62.97
2023-04-06T10:12:22.820Z,63.11
2023-04-06T10:14:49.952Z,63.03
2023-04-06T10:17:16.803Z,62.54
2023-04-06T10:19:52.235Z,62.11
2023-04-06T10:22:30.661Z,61.93
2023-04-06T10:24:57.326Z,61.83
2023-04-06T10:27:30.273Z,61.90
2023-04-06T10:30:03.814Z,62.13
2023-04-06T10:32:36.695Z,62.19
2023-04-06T10:35:11.084Z,62.27
2023-04-06T10:37:52.354Z,62.38
2023-04-06T10:40:23.854Z,62.27
2023-04-06T10:42:50.679Z,62.28
2023-04-06T10:45:27.367Z,62.26
2023-04-06T10:47:54.453Z,62.24
2023-04-06T10:50:21.271Z,62.13
2023-04-06T10:52:47.902Z,62.36
2023-04-06T10:55:15.258Z,62.44
2023-04-06T10:57:41.984Z,62.63
2023-04-06T11:00:11.457Z,62.65
2023-04-06T11:02:41.174Z,62.80
2023-04-06T11:05:08.210Z,62.85
2023-04-06T11:07:36.783Z,62.85
2023-04-06T11:10:15.573Z,62.76
2023-04-06T11:12:44.380Z,62.62
2023-04-06T11:15:11.659Z,62.39
2023-04-06T11:17:39.002Z,62.48
2023-04-06T11:20:09.811Z,62.51
2023-04-06T11:22:36.861Z,62.53
2023-04-06T11:25:07.396Z,62.47
2023-04-06T11:27:38.899Z,62.32
2023-04-06T11:30:06.601Z,62.17
2023-04-06T11:32:43.673Z,62.01
2023-04-06T11:35:19.966Z,61.87
2023-04-06T11:37:46.706Z,61.87
2023-04-06T11:40:13.563Z,61.73
2023-04-06T11:42:41.224Z,61.71
2023-04-06T11:45:09.015Z,61.64
2023-04-06T11:47:36.954Z,61.51
2023-04-06T11:50:11.727Z,61.41
2023-04-06T11:52:39.712Z,61.46
2023-04-06T11:55:17.113Z,61.35
2023-04-06T11:57:44.016Z,61.47
2023-04-06T12:00:11.188Z,61.59
2023-04-06T12:02:38.759Z,61.65
2023-04-06T12:05:06.744Z,61.52
2023-04-06T12:07:34.992Z,61.64
2023-04-06T12:10:02.845Z,61.64
2023-04-06T12:12:30.014Z,61.64
2023-04-06T12:14:56.874Z,61.71
2023-04-06T12:17:23.715Z,61.77
2023-04-06T12:19:50.562Z,61.99
2023-04-06T12:22:18.218Z,61.99
2023-04-06T12:24:45.041Z,62.04
2023-04-06T12:27:11.984Z,62.19
2023-04-06T12:29:39.986Z,62.25
2023-04-06T12:32:06.956Z,62.30
2023-04-06T12:34:34.590Z,62.10
2023-04-06T12:37:02.040Z,62.10
2023-04-06T12:39:35.632Z,62.15
2023-04-06T12:42:03.023Z,62.20
2023-04-06T12:44:30.025Z,62.25
2023-04-06T12:46:57.158Z,62.32
2023-04-06T12:49:25.050Z,62.28
2023-04-06T12:51:56.320Z,62.18
2023-04-06T12:54:23.372Z,62.01
2023-04-06T12:56:50.220Z,62.08
2023-04-06T12:59:17.008Z,62.11
2023-04-06T13:01:44.592Z,62.16
2023-04-06T13:04:11.341Z,62.31
2023-04-06T13:06:39.885Z,62.38
2023-04-06T13:09:08.130Z,62.46
2023-04-06T13:11:35.051Z,62.45
2023-04-06T13:14:02.449Z,62.47
2023-04-06T13:16:29.564Z,62.32
2023-04-06T13:18:56.629Z,62.29
2023-04-06T13:21:24.277Z,62.15
2023-04-06T13:23:51.365Z,62.20
2023-04-06T13:26:18.250Z,62.14
2023-04-06T13:28:45.470Z,62.12
2023-04-06T13:31:12.380Z,62.29
2023-04-06T13:33:43.011Z,62.29
2023-04-06T13:36:09.973Z,62.07
2023-04-06T13:38:39.150Z,61.88
2023-04-06T13:41:06.363Z,61.83
2023-04-06T13:43:33.330Z,61.91
2023-04-06T13:46:01.485Z,61.94
2023-04-06T13:48:29.983Z,61.75
2023-04-06T13:50:57.944Z,61.91
2023-04-06T13:53:24.795Z,61.87
2023-04-06T13:55:55.501Z,61.87
2023-04-06T13:58:26.226Z,61.68
2023-04-06T14:00:53.747Z,61.71
2023-04-06T14:03:22.678Z,61.60
2023-04-06T14:05:50.890Z,61.57
2023-04-06T14:08:19.092Z,61.65
2023-04-06T14:10:46.352Z,61.79
2023-04-06T14:13:13.941Z,61.70
2023-04-06T14:15:40.833Z,61.72
2023-04-06T14:18:08.833Z,61.88
2023-04-06T14:20:36.104Z,61.90
2023-04-06T14:23:03.563Z,61.56
2023-04-06T14:25:35.980Z,61.12
2023-04-06T14:28:04.803Z,60.49
2023-04-06T14:30:34.654Z,60.29
2023-04-06T14:33:04.930Z,60.51
2023-04-06T14:35:39.827Z,60.40
2023-04-06T14:38:09.856Z,60.35
2023-04-06T14:40:39.311Z,60.53
2023-04-06T14:43:09.637Z,60.44
2023-04-06T14:45:39.888Z,60.31
2023-04-06T14:48:12.963Z,59.99
2023-04-06T14:50:47.890Z,59.91
2023-04-06T14:53:17.930Z,59.53
2023-04-06T14:55:47.898Z,59.51
2023-04-06T14:58:18.479Z,59.54
2023-04-06T15:00:48.257Z,59.45
2023-04-06T15:03:19.271Z,59.39
2023-04-06T15:05:50.874Z,59.25
2023-04-06T15:08:22.082Z,59.11
2023-04-06T15:10:51.078Z,58.97
2023-04-06T15:13:23.935Z,59.24
2023-04-06T15:15:52.784Z,59.53
2023-04-06T15:18:22.577Z,59.92
2023-04-06T15:21:00.930Z,60.32
2023-04-06T15:23:31.044Z,60.73
2023-04-06T15:33:36.602Z,61.95
2023-04-06T15:36:07.905Z,62.10
2023-04-06T15:38:36.714Z,62.13
2023-04-06T15:41:05.695Z,62.34
2023-04-06T15:43:34.726Z,62.44
2023-04-06T15:48:42.454Z,61.89
2023-04-06T15:51:10.809Z,61.40
2023-04-06T15:53:40.908Z,60.93
2023-04-06T15:56:09.922Z,60.60
2023-04-06T15:58:38.368Z,60.34
2023-04-06T16:01:14.409Z,60.10
2023-04-06T16:03:44.132Z,59.94
2023-04-06T16:06:12.640Z,59.87
2023-04-06T16:08:41.720Z,59.98
2023-04-06T16:11:10.457Z,60.14
2023-04-06T16:13:38.978Z,60.15
2023-04-06T16:16:08.612Z,60.30
2023-04-06T16:18:37.460Z,59.99
2023-04-06T16:21:05.798Z,59.94
2023-04-06T16:23:34.538Z,59.89
2023-04-06T16:26:03.000Z,59.80
2023-04-06T16:28:33.187Z,59.76
2023-04-06T16:31:01.657Z,59.75
2023-04-06T16:33:31.537Z,59.64
2023-04-06T16:35:59.679Z,59.50
2023-04-06T16:38:34.173Z,59.44
2023-04-06T16:41:02.630Z,59.30
2023-04-06T16:43:32.427Z,59.22
2023-04-06T16:46:01.683Z,59.23
2023-04-06T16:48:30.021Z,59.18
2023-04-06T16:50:58.045Z,59.29
2023-04-06T16:53:26.462Z,59.45
2023-04-06T16:55:54.457Z,59.53
2023-04-06T16:58:23.304Z,59.80
2023-04-06T17:00:51.465Z,59.97
2023-04-06T17:03:21.115Z,60.12
2023-04-06T17:05:49.675Z,60.28
2023-04-06T17:08:18.915Z,60.36
2023-04-06T17:10:59.274Z,60.40
2023-04-06T17:13:34.579Z,60.53
2023-04-06T17:16:03.682Z,60.50
2023-04-06T17:18:31.832Z,60.49
2023-04-06T17:21:06.375Z,60.42
2023-04-06T17:23:34.918Z,60.23
2023-04-06T17:26:05.256Z,59.91
2023-04-06T17:28:33.917Z,59.80
2023-04-06T17:31:02.184Z,59.77
2023-04-06T17:33:39.812Z,59.80
2023-04-06T17:36:09.978Z,59.76
2023-04-06T17:38:44.436Z,59.91
2023-04-06T17:48:53.356Z,59.20
2023-04-06T17:51:21.636Z,59.10
2023-04-06T17:53:49.768Z,59.06
2023-04-06T17:56:18.104Z,59.05
2023-04-06T17:58:48.408Z,59.12
2023-04-06T18:01:20.504Z,59.05
2023-04-06T18:03:49.060Z,59.17
2023-04-06T18:06:17.944Z,58.99
2023-04-06T18:08:46.170Z,59.03
2023-04-06T18:11:17.203Z,58.89
2023-04-06T18:13:46.150Z,58.91
2023-04-06T18:16:17.858Z,58.93
2023-04-06T18:18:49.697Z,58.96
2023-04-06T18:21:17.760Z,58.98
2023-04-06T18:23:49.543Z,59.04
2023-04-06T18:26:18.417Z,59.28
2023-04-06T18:28:47.489Z,59.23
2023-04-06T18:31:16.665Z,59.15
2023-04-06T18:33:45.415Z,59.09
2023-04-06T18:36:14.838Z,59.09
2023-04-06T18:38:44.693Z,59.08
2023-04-06T18:41:15.116Z,59.12
2023-04-06T18:43:43.745Z,59.13
2023-04-06T18:46:14.962Z,59.20
2023-04-06T18:48:44.551Z,59.19
2023-04-06T18:51:13.030Z,59.09
2023-04-06T18:53:41.745Z,59.06
2023-04-06T18:56:16.288Z,59.12
2023-04-06T18:58:45.531Z,59.14
2023-04-06T19:01:24.041Z,58.88
2023-04-06T19:03:53.939Z,58.83
2023-04-06T19:06:23.047Z,58.80
2023-04-06T19:08:51.441Z,58.79
2023-04-06T19:11:25.310Z,58.85
2023-04-06T19:13:54.057Z,58.96
2023-04-06T19:16:29.290Z,58.96
2023-04-06T19:19:00.086Z,59.01
2023-04-06T19:21:28.401Z,59.03
2023-04-06T19:23:57.625Z,59.08
2023-04-06T19:26:28.177Z,58.97
2023-04-06T19:28:56.692Z,59.04
2023-04-06T19:31:27.104Z,59.05
2023-04-06T19:33:55.721Z,59.10
2023-04-06T19:36:26.233Z,59.07
2023-04-06T19:38:54.863Z,59.02
2023-04-06T19:41:23.940Z,58.95
2023-04-06T19:43:52.218Z,58.95
2023-04-06T19:46:21.614Z,58.94
2023-04-06T19:48:50.317Z,59.05
2023-04-06T19:51:18.934Z,58.96
2023-04-06T19:53:47.252Z,58.89
2023-04-06T19:56:16.361Z,59.03
2023-04-06T19:58:45.148Z,59.00
2023-04-06T20:01:13.460Z,58.98
2023-04-06T20:03:42.006Z,58.74
2023-04-06T20:06:11.216Z,58.57
2023-04-06T20:08:40.033Z,58.67
2023-04-06T20:11:09.621Z,58.80
2023-04-06T20:13:38.204Z,58.91
2023-04-06T20:16:06.369Z,58.90
2023-04-06T20:18:41.202Z,58.92
2023-04-06T20:21:09.984Z,58.86
2023-04-06T20:23:38.966Z,58.80
2023-04-06T20:26:10.337Z,58.78
2023-04-06T20:28:39.821Z,58.79
2023-04-06T20:31:12.904Z,58.83
2023-04-06T20:33:42.108Z,58.75
2023-04-06T20:36:11.510Z,58.75
2023-04-06T20:38:40.707Z,58.60
2023-04-06T20:41:10.556Z,58.63
2023-04-06T20:43:39.115Z,58.63
2023-04-06T20:46:09.351Z,58.68
2023-04-06T20:48:38.434Z,58.56
2023-04-06T20:51:06.795Z,58.37
2023-04-06T20:53:35.850Z,58.30
2023-04-06T20:56:04.305Z,58.29
2023-04-06T20:58:34.303Z,58.09
2023-04-06T21:01:02.554Z,57.80
2023-04-06T21:03:38.359Z,57.35
2023-04-06T21:06:07.571Z,57.02
2023-04-06T21:08:36.104Z,56.98
2023-04-06T21:11:06.498Z,57.13
2023-04-06T21:13:34.910Z,57.17
2023-04-06T21:16:05.804Z,56.93
2023-04-06T21:18:36.861Z,57.02
2023-04-06T21:21:06.570Z,57.08
2023-04-06T21:23:36.091Z,57.14
2023-04-06T21:26:05.409Z,57.09
2023-04-06T21:28:33.749Z,57.00
2023-04-06T21:31:02.417Z,56.97
2023-04-06T21:33:37.739Z,56.89
2023-04-06T21:36:07.046Z,56.89
2023-04-06T21:38:36.528Z,56.87
2023-04-06T21:41:04.831Z,56.89
2023-04-06T21:43:33.737Z,56.89
2023-04-06T21:46:02.406Z,56.80
2023-04-06T21:48:30.635Z,56.79
2023-04-06T21:50:58.901Z,56.81
2023-04-06T21:53:27.555Z,56.75
2023-04-06T21:55:55.879Z,56.76
2023-04-06T21:58:23.901Z,56.71
2023-04-06T22:00:52.515Z,56.67
2023-04-06T22:11:07.799Z,56.68
2023-04-06T22:13:36.210Z,56.60
2023-04-06T22:16:05.375Z,56.51
2023-04-06T22:18:38.085Z,56.54
2023-04-06T22:21:08.244Z,56.40
2023-04-06T22:23:42.435Z,55.94
2023-04-06T22:26:14.932Z,55.68
2023-04-06T22:28:43.112Z,55.37
2023-04-06T22:31:11.449Z,55.38
2023-04-06T22:33:40.987Z,55.30
2023-04-06T22:36:10.064Z,55.46
2023-04-06T22:38:40.717Z,55.65
2023-04-06T22:41:09.080Z,55.83
2023-04-06T22:51:15.572Z,56.13
2023-04-06T22:53:43.684Z,56.14
2023-04-06T22:56:11.898Z,56.13
2023-04-06T22:58:41.132Z,56.21
2023-04-06T23:01:09.401Z,56.31
2023-04-06T23:03:39.679Z,56.32
2023-04-06T23:06:08.078Z,56.49
2023-04-06T23:08:36.530Z,56.44
2023-04-06T23:11:04.693Z,56.48
2023-04-06T23:13:34.574Z,56.50
2023-04-06T23:16:02.681Z,56.60
2023-04-06T23:18:32.298Z,56.41
2023-04-06T23:21:00.886Z,56.36
2023-04-06T23:23:29.280Z,56.34
2023-04-06T23:25:57.583Z,56.42
2023-04-06T23:28:26.441Z,56.51
2023-04-06T23:30:54.956Z,56.46
2023-04-06T23:33:29.230Z,56.30
2023-04-06T23:35:57.516Z,56.39
2023-04-06T23:38:26.628Z,56.42
2023-04-06T23:40:54.978Z,56.34
2023-04-06T23:43:24.894Z,56.29
2023-04-06T23:45:53.517Z,56.10
2023-04-06T23:48:23.290Z,56.19
2023-04-06T23:50:52.844Z,56.13
2023-04-06T23:53:23.916Z,56.11
2023-04-06T23:55:54.231Z,56.13
2023-04-06T23:58:22.559Z,56.18
